createdAt,value
2019-01-28T00:04:49.206Z,86.41
2019-01-28T00:10:06.792Z,86.10
2019-01-28T00:15:24.303Z,86.00
2019-01-28T00:20:41.792Z,85.78
2019-01-28T00:25:59.057Z,86.12
2019-01-28T00:31:17.329Z,85.76
2019-01-28T00:36:35.831Z,85.44
2019-01-28T00:41:53.139Z,84.95
2019-01-28T00:47:10.759Z,84.10
2019-01-28T00:52:28.185Z,83.64
2019-01-28T00:57:45.519Z,83.75
2019-01-28T01:03:03.199Z,83.84
2019-01-28T01:08:20.726Z,83.33
2019-01-28T01:13:38.141Z,83.02
2019-01-28T01:18:55.506Z,83.24
2019-01-28T01:24:13.285Z,83.20
2019-01-28T01:29:30.967Z,83.42
2019-01-28T01:34:49.359Z,83.41
2019-01-28T01:40:08.439Z,83.63
2019-01-28T01:45:25.748Z,83.89
2019-01-28T01:50:44.039Z,83.88
2019-01-28T01:56:01.830Z,84.13
2019-01-28T02:01:19.001Z,84.35
2019-01-28T02:06:36.608Z,84.00
2019-01-28T02:11:54.055Z,83.93
2019-01-28T02:17:11.292Z,84.17
2019-01-28T02:22:29.174Z,84.69
2019-01-28T02:27:46.467Z,84.74
2019-01-28T02:33:03.599Z,84.55
2019-01-28T02:38:21.126Z,84.74
2019-01-28T02:43:38.985Z,84.86
2019-01-28T02:48:56.097Z,84.81
2019-01-28T02:54:14.052Z,84.82
2019-01-28T02:59:31.670Z,84.95
2019-01-28T03:04:48.954Z,84.75
2019-01-28T03:10:07.663Z,84.60
2019-01-28T03:15:27.334Z,84.76
2019-01-28T03:20:44.875Z,84.76
2019-01-28T03:26:02.952Z,84.74
2019-01-28T03:31:20.925Z,85.05
2019-01-28T03:36:38.743Z,85.19
2019-01-28T03:41:56.333Z,85.26
2019-01-28T03:47:14.574Z,85.25
2019-01-28T03:52:32.605Z,85.22
2019-01-28T03:57:50.475Z,85.43
2019-01-28T04:03:08.629Z,85.41
2019-01-28T04:08:25.906Z,85.57
2019-01-28T04:13:51.466Z,85.75
2019-01-28T04:19:08.824Z,86.46
2019-01-28T04:24:26.456Z,86.87
2019-01-28T04:29:44.709Z,86.86
2019-01-28T04:35:02.472Z,87.01
2019-01-28T04:40:20.373Z,86.87
2019-01-28T04:45:38.809Z,86.88
2019-01-28T04:50:56.599Z,86.80
2019-01-28T04:56:13.830Z,87.05
2019-01-28T05:01:31.502Z,86.34
2019-01-28T05:06:48.949Z,86.08
2019-01-28T05:12:06.857Z,85.97
2019-01-28T05:17:24.373Z,85.10
2019-01-28T05:22:42.582Z,84.81
2019-01-28T05:28:00.186Z,84.83
2019-01-28T05:33:17.800Z,84.74
2019-01-28T05:38:35.706Z,83.72
2019-01-28T05:43:55.628Z,83.27
2019-01-28T05:49:13.212Z,81.84
2019-01-28T05:54:31.330Z,83.22
2019-01-28T05:59:49.072Z,82.36
2019-01-28T06:05:06.749Z,83.32
2019-01-28T06:10:24.439Z,83.37
2019-01-28T06:15:42.285Z,82.53
2019-01-28T06:20:59.865Z,83.38
2019-01-28T06:26:17.811Z,82.28
2019-01-28T06:31:35.553Z,82.85
2019-01-28T06:36:52.895Z,83.04
2019-01-28T06:42:10.334Z,83.87
2019-01-28T06:47:27.485Z,84.05
2019-01-28T06:52:45.334Z,82.77
2019-01-28T06:58:02.954Z,82.22
2019-01-28T07:03:20.446Z,82.08
2019-01-28T07:08:38.448Z,82.20
2019-01-28T07:13:56.741Z,82.00
2019-01-28T07:19:13.811Z,81.82
2019-01-28T07:24:31.031Z,80.41
2019-01-28T07:29:48.159Z,81.41
2019-01-28T07:35:06.172Z,81.22
2019-01-28T07:40:23.903Z,80.39
2019-01-28T07:45:45.565Z,80.83
2019-01-28T07:51:00.007Z,80.51
2019-01-28T07:56:17.113Z,80.55
2019-01-28T08:01:41.715Z,79.93
2019-01-28T08:06:59.774Z,80.07
2019-01-28T08:12:17.391Z,79.79
2019-01-28T08:17:34.884Z,79.93
2019-01-28T08:22:52.405Z,78.81
2019-01-28T08:28:09.674Z,80.19
2019-01-28T08:33:27.392Z,77.72
2019-01-28T08:38:45.544Z,78.05
2019-01-28T08:44:03.345Z,77.03
2019-01-28T08:49:20.748Z,75.88
2019-01-28T08:54:38.777Z,78.99
2019-01-28T08:59:56.827Z,77.09
2019-01-28T09:05:14.006Z,76.69
2019-01-28T09:10:33.757Z,76.88
2019-01-28T09:15:51.797Z,75.55
2019-01-28T09:21:09.214Z,75.40
2019-01-28T09:26:26.846Z,75.08
2019-01-28T09:31:44.397Z,74.57
2019-01-28T09:37:01.765Z,75.19
2019-01-28T09:42:20.297Z,72.25
2019-01-28T09:47:38.195Z,72.88
2019-01-28T09:52:55.915Z,72.49
2019-01-28T09:58:13.853Z,72.24
2019-01-28T10:03:31.417Z,72.13
2019-01-28T10:08:49.022Z,73.20
2019-01-28T10:14:06.692Z,70.37
2019-01-28T10:19:24.270Z,70.02
2019-01-28T10:24:41.897Z,68.58
2019-01-28T10:29:59.447Z,68.00
2019-01-28T10:35:17.137Z,67.62
2019-01-28T10:40:34.886Z,67.93
2019-01-28T10:45:52.489Z,66.84
2019-01-28T10:51:10.158Z,66.21
2019-01-28T10:56:27.967Z,67.08
2019-01-28T11:01:45.363Z,66.21
2019-01-28T11:07:03.223Z,63.37
2019-01-28T11:12:20.640Z,64.23
2019-01-28T11:17:38.922Z,65.08
2019-01-28T11:22:56.407Z,64.82
2019-01-28T11:28:13.952Z,64.76
2019-01-28T11:33:31.074Z,61.89
2019-01-28T11:38:48.570Z,60.45
2019-01-28T11:44:06.134Z,59.16
2019-01-28T11:49:24.716Z,59.57
2019-01-28T11:54:41.941Z,59.89
2019-01-28T11:59:59.167Z,58.10
2019-01-28T12:05:17.221Z,59.24
2019-01-28T12:10:34.953Z,57.93
2019-01-28T12:15:53.051Z,59.41
2019-01-28T12:21:11.118Z,60.22
2019-01-28T12:26:29.318Z,59.23
2019-01-28T12:31:47.397Z,59.40
2019-01-28T12:37:04.607Z,60.11
2019-01-28T12:42:22.143Z,60.29
2019-01-28T12:47:39.757Z,62.69
2019-01-28T12:52:57.604Z,60.31
2019-01-28T12:58:15.694Z,61.37
2019-01-28T13:03:32.989Z,57.47
2019-01-28T13:08:50.973Z,58.58
2019-01-28T13:14:08.225Z,58.33
2019-01-28T13:19:30.273Z,58.57
2019-01-28T13:24:45.379Z,59.29
2019-01-28T13:30:02.767Z,58.69
2019-01-28T13:35:21.233Z,60.08
2019-01-28T13:40:39.181Z,61.57
2019-01-28T13:45:58.095Z,60.94
2019-01-28T13:51:15.968Z,61.50
2019-01-28T13:56:33.365Z,60.27
2019-01-28T14:01:50.855Z,60.91
2019-01-28T14:07:08.585Z,61.68
2019-01-28T14:12:25.831Z,61.64
2019-01-28T14:17:43.149Z,66.15
2019-01-28T14:23:00.776Z,63.94
2019-01-28T14:28:19.339Z,63.32
2019-01-28T14:33:37.453Z,65.76
2019-01-28T14:38:54.580Z,64.98
2019-01-28T14:44:13.490Z,66.26
2019-01-28T14:49:32.347Z,63.69
2019-01-28T14:54:47.238Z,64.69
2019-01-28T15:00:05.163Z,64.31
2019-01-28T15:05:22.348Z,63.18
2019-01-28T15:10:40.119Z,64.05
2019-01-28T15:15:58.100Z,64.02
2019-01-28T15:21:15.905Z,69.72
2019-01-28T15:26:33.770Z,65.59
2019-01-28T15:31:51.192Z,66.28
2019-01-28T15:37:09.086Z,66.44
2019-01-28T15:42:26.535Z,71.46
2019-01-28T15:47:44.055Z,71.42
2019-01-28T15:53:02.067Z,67.64
2019-01-28T15:58:20.129Z,66.66
2019-01-28T16:03:37.881Z,66.87
2019-01-28T16:08:56.605Z,66.27
2019-01-28T16:14:14.974Z,67.83
2019-01-28T16:19:32.926Z,68.57
2019-01-28T16:24:50.418Z,67.29
2019-01-28T16:30:10.666Z,65.97
2019-01-28T16:35:27.967Z,67.78
2019-01-28T16:40:46.106Z,66.53
2019-01-28T16:46:03.295Z,66.32
2019-01-28T16:51:20.684Z,66.49
2019-01-28T16:56:39.715Z,66.55
2019-01-28T17:01:57.254Z,66.49
2019-01-28T17:07:15.173Z,67.10
2019-01-28T17:12:33.687Z,68.05
2019-01-28T17:17:53.153Z,67.83
2019-01-28T17:23:11.893Z,68.11
2019-01-28T17:28:29.637Z,67.60
2019-01-28T17:33:47.648Z,67.75
2019-01-28T17:39:06.705Z,67.48
2019-01-28T17:44:24.972Z,69.47
2019-01-28T17:49:43.987Z,69.04
2019-01-28T17:55:02.685Z,68.37
2019-01-28T18:00:29.721Z,67.33
2019-01-28T18:05:46.406Z,67.48
2019-01-28T18:11:05.527Z,68.65
2019-01-28T18:16:25.032Z,68.62
2019-01-28T18:21:42.769Z,67.24
2019-01-28T18:27:00.331Z,61.59
2019-01-28T18:32:18.625Z,64.50
2019-01-28T18:37:35.978Z,61.23
2019-01-28T18:42:53.843Z,62.15
2019-01-28T18:48:12.491Z,63.85
2019-01-28T18:53:33.326Z,61.32
2019-01-28T18:58:53.073Z,63.39
2019-01-28T19:04:10.918Z,63.94
2019-01-28T19:09:52.691Z,64.45
2019-01-28T19:15:21.272Z,64.63
2019-01-28T19:21:07.864Z,64.66
2019-01-28T19:26:19.668Z,62.77
2019-01-28T19:31:37.932Z,58.60
2019-01-28T19:36:56.193Z,58.82
2019-01-28T19:42:14.700Z,58.81
2019-01-28T19:47:34.056Z,56.89
2019-01-28T19:52:53.579Z,59.67
2019-01-28T19:58:14.206Z,58.44
2019-01-28T20:03:34.122Z,57.32
2019-01-28T20:08:53.592Z,58.80
2019-01-28T20:14:11.596Z,59.67
2019-01-28T20:19:31.789Z,58.16
2019-01-28T20:24:49.618Z,59.57
2019-01-28T20:30:08.935Z,58.19
2019-01-28T20:35:26.345Z,57.41
2019-01-28T20:40:44.788Z,58.93
2019-01-28T20:46:03.638Z,57.99
2019-01-28T20:51:21.989Z,58.41
2019-01-28T20:56:39.689Z,57.26
2019-01-28T21:01:57.460Z,58.93
2019-01-28T21:07:15.109Z,57.99
2019-01-28T21:12:33.407Z,58.62
2019-01-28T21:17:51.485Z,58.26
2019-01-28T21:23:09.600Z,58.51
2019-01-28T21:28:30.323Z,59.06
2019-01-28T21:33:50.683Z,58.96
2019-01-28T21:39:09.640Z,60.20
2019-01-28T21:44:27.607Z,61.00
2019-01-28T21:49:46.039Z,61.14
2019-01-28T21:55:04.208Z,61.42
2019-01-28T22:00:22.934Z,61.82
2019-01-28T22:05:40.279Z,62.53
2019-01-28T22:10:58.498Z,62.79
2019-01-28T22:16:16.137Z,61.44
2019-01-28T22:21:33.606Z,62.07
2019-01-28T22:26:52.427Z,63.20
2019-01-28T22:32:11.548Z,62.69
2019-01-28T22:37:29.639Z,62.28
2019-01-28T22:42:47.484Z,61.55
2019-01-28T22:48:05.232Z,63.25
2019-01-28T22:53:23.365Z,63.17
2019-01-28T22:58:41.510Z,63.26
2019-01-28T23:03:59.483Z,63.45
2019-01-28T23:09:17.925Z,63.72
2019-01-28T23:14:35.127Z,62.96
2019-01-28T23:19:52.780Z,63.62
2019-01-28T23:25:10.127Z,64.37
2019-01-28T23:30:27.345Z,64.85
2019-01-28T23:35:45.209Z,64.93
2019-01-28T23:41:02.951Z,64.54
2019-01-28T23:46:20.186Z,64.83
2019-01-28T23:51:37.718Z,64.26
2019-01-28T23:56:56.469Z,64.70
